sensor_id;sensor_type;location;lat;lon;timestamp;P1;durP1;ratioP1;P2;durP2;ratioP2
6642;SDS011;3357;48.050;7.800;2022-09-16T00:00:12;10.93;;;1.63;;
6642;SDS011;3357;48.050;7.800;2022-09-16T00:02:38;3.13;;;1.13;;
6642;SDS011;3357;48.050;7.800;2022-09-16T00:05:03;1.50;;;1.40;;
6642;SDS011;3357;48.050;7.800;2022-09-16T00:07:29;4.77;;;1.73;;
6642;SDS011;3357;48.050;7.800;2022-09-16T00:09:54;5.13;;;1.30;;
6642;SDS011;3357;48.050;7.800;2022-09-16T00:12:20;2.47;;;1.60;;
6642;SDS011;3357;48.050;7.800;2022-09-16T00:14:45;2.10;;;1.47;;
6642;SDS011;3357;48.050;7.800;2022-09-16T00:17:11;6.30;;;1.50;;
6642;SDS011;3357;48.050;7.800;2022-09-16T00:19:36;2.53;;;1.20;;
6642;SDS011;3357;48.050;7.800;2022-09-16T00:22:01;2.83;;;1.27;;
6642;SDS011;3357;48.050;7.800;2022-09-16T00:24:27;4.47;;;1.70;;
6642;SDS011;3357;48.050;7.800;2022-09-16T00:26:53;1.87;;;1.77;;
6642;SDS011;3357;48.050;7.800;2022-09-16T00:29:18;4.80;;;1.90;;
6642;SDS011;3357;48.050;7.800;2022-09-16T00:31:44;2.20;;;2.00;;
6642;SDS011;3357;48.050;7.800;2022-09-16T00:34:09;5.43;;;1.63;;
6642;SDS011;3357;48.050;7.800;2022-09-16T00:36:34;1.70;;;1.60;;
6642;SDS011;3357;48.050;7.800;2022-09-16T00:38:59;8.93;;;2.23;;
6642;SDS011;3357;48.050;7.800;2022-09-16T00:41:26;1.90;;;1.80;;
6642;SDS011;3357;48.050;7.800;2022-09-16T00:43:57;2.30;;;2.10;;
6642;SDS011;3357;48.050;7.800;2022-09-16T00:46:36;7.53;;;2.40;;
6642;SDS011;3357;48.050;7.800;2022-09-16T00:49:06;2.50;;;2.00;;
6642;SDS011;3357;48.050;7.800;2022-09-16T00:51:36;4.23;;;2.30;;
6642;SDS011;3357;48.050;7.800;2022-09-16T00:54:05;4.30;;;2.90;;
6642;SDS011;3357;48.050;7.800;2022-09-16T00:56:34;3.23;;;2.93;;
6642;SDS011;3357;48.050;7.800;2022-09-16T00:59:03;5.10;;;2.77;;
6642;SDS011;3357;48.050;7.800;2022-09-16T01:01:35;3.73;;;2.60;;
6642;SDS011;3357;48.050;7.800;2022-09-16T01:04:03;4.07;;;2.97;;
6642;SDS011;3357;48.050;7.800;2022-09-16T01:06:31;3.20;;;3.00;;
6642;SDS011;3357;48.050;7.800;2022-09-16T01:09:05;2.80;;;2.50;;
6642;SDS011;3357;48.050;7.800;2022-09-16T01:11:31;3.27;;;3.00;;
6642;SDS011;3357;48.050;7.800;2022-09-16T01:13:56;6.60;;;2.70;;
6642;SDS011;3357;48.050;7.800;2022-09-16T01:16:43;2.40;;;2.30;;
6642;SDS011;3357;48.050;7.800;2022-09-16T01:27:21;3.20;;;2.43;;
6642;SDS011;3357;48.050;7.800;2022-09-16T01:30:10;2.03;;;1.93;;
6642;SDS011;3357;48.050;7.800;2022-09-16T01:40:13;2.20;;;2.10;;
6642;SDS011;3357;48.050;7.800;2022-09-16T01:42:55;3.63;;;2.60;;
6642;SDS011;3357;48.050;7.800;2022-09-16T01:59:41;4.03;;;3.20;;
6642;SDS011;3357;48.050;7.800;2022-09-16T02:02:15;4.73;;;2.97;;
6642;SDS011;3357;48.050;7.800;2022-09-16T02:04:49;3.90;;;3.07;;
6642;SDS011;3357;48.050;7.800;2022-09-16T02:07:16;3.30;;;3.00;;
6642;SDS011;3357;48.050;7.800;2022-09-16T02:09:45;2.70;;;2.50;;
6642;SDS011;3357;48.050;7.800;2022-09-16T02:12:20;5.23;;;3.20;;
6642;SDS011;3357;48.050;7.800;2022-09-16T02:14:49;5.70;;;3.03;;
6642;SDS011;3357;48.050;7.800;2022-09-16T02:17:17;4.70;;;3.90;;
6642;SDS011;3357;48.050;7.800;2022-09-16T02:19:48;4.07;;;3.70;;
6642;SDS011;3357;48.050;7.800;2022-09-16T02:22:20;5.00;;;3.83;;
6642;SDS011;3357;48.050;7.800;2022-09-16T02:24:51;5.63;;;3.70;;
6642;SDS011;3357;48.050;7.800;2022-09-16T02:27:17;5.60;;;3.83;;
6642;SDS011;3357;48.050;7.800;2022-09-16T02:29:47;5.43;;;4.87;;
6642;SDS011;3357;48.050;7.800;2022-09-16T02:32:18;5.33;;;4.50;;
6642;SDS011;3357;48.050;7.800;2022-09-16T02:34:46;4.30;;;4.00;;
6642;SDS011;3357;48.050;7.800;2022-09-16T02:37:15;4.00;;;3.60;;
6642;SDS011;3357;48.050;7.800;2022-09-16T02:39:43;3.60;;;3.40;;
6642;SDS011;3357;48.050;7.800;2022-09-16T02:42:12;5.70;;;3.73;;
6642;SDS011;3357;48.050;7.800;2022-09-16T02:44:38;4.60;;;4.10;;
6642;SDS011;3357;48.050;7.800;2022-09-16T02:50:01;5.10;;;4.13;;
6642;SDS011;3357;48.050;7.800;2022-09-16T02:52:35;4.37;;;3.97;;
6642;SDS011;3357;48.050;7.800;2022-09-16T02:55:04;3.80;;;3.43;;
6642;SDS011;3357;48.050;7.800;2022-09-16T02:57:35;3.67;;;3.37;;
6642;SDS011;3357;48.050;7.800;2022-09-16T03:00:02;3.40;;;3.10;;
6642;SDS011;3357;48.050;7.800;2022-09-16T03:02:30;3.57;;;3.27;;
6642;SDS011;3357;48.050;7.800;2022-09-16T03:04:57;5.10;;;3.87;;
6642;SDS011;3357;48.050;7.800;2022-09-16T03:07:22;10.37;;;3.60;;
6642;SDS011;3357;48.050;7.800;2022-09-16T03:09:47;3.50;;;3.20;;
6642;SDS011;3357;48.050;7.800;2022-09-16T03:23:56;3.40;;;3.10;;
6642;SDS011;3357;48.050;7.800;2022-09-16T03:29:25;3.70;;;3.40;;
6642;SDS011;3357;48.050;7.800;2022-09-16T03:34:50;3.87;;;3.67;;
6642;SDS011;3357;48.050;7.800;2022-09-16T03:37:18;2.90;;;2.67;;
6642;SDS011;3357;48.050;7.800;2022-09-16T03:39:51;3.63;;;3.27;;
6642;SDS011;3357;48.050;7.800;2022-09-16T03:42:19;4.90;;;3.00;;
6642;SDS011;3357;48.050;7.800;2022-09-16T03:44:45;3.87;;;3.43;;
6642;SDS011;3357;48.050;7.800;2022-09-16T03:47:10;3.00;;;2.80;;
6642;SDS011;3357;48.050;7.800;2022-09-16T03:49:36;3.43;;;3.13;;
6642;SDS011;3357;48.050;7.800;2022-09-16T03:52:02;3.10;;;2.90;;
6642;SDS011;3357;48.050;7.800;2022-09-16T03:54:31;3.10;;;2.83;;
6642;SDS011;3357;48.050;7.800;2022-09-16T03:56:57;4.07;;;2.70;;
6642;SDS011;3357;48.050;7.800;2022-09-16T03:59:22;7.40;;;3.00;;
6642;SDS011;3357;48.050;7.800;2022-09-16T04:01:48;6.20;;;3.20;;
6642;SDS011;3357;48.050;7.800;2022-09-16T04:04:13;3.43;;;3.23;;
6642;SDS011;3357;48.050;7.800;2022-09-16T04:06:39;4.33;;;3.40;;
6642;SDS011;3357;48.050;7.800;2022-09-16T04:09:05;8.60;;;3.67;;
6642;SDS011;3357;48.050;7.800;2022-09-16T04:11:32;3.23;;;3.00;;
6642;SDS011;3357;48.050;7.800;2022-09-16T04:13:58;3.50;;;3.20;;
6642;SDS011;3357;48.050;7.800;2022-09-16T04:16:26;4.03;;;3.20;;
6642;SDS011;3357;48.050;7.800;2022-09-16T04:18:51;3.23;;;2.70;;
6642;SDS011;3357;48.050;7.800;2022-09-16T04:21:17;3.50;;;3.20;;
6642;SDS011;3357;48.050;7.800;2022-09-16T04:23:42;4.17;;;3.20;;
6642;SDS011;3357;48.050;7.800;2022-09-16T04:26:14;3.97;;;3.70;;
6642;SDS011;3357;48.050;7.800;2022-09-16T04:28:40;3.30;;;3.00;;
6642;SDS011;3357;48.050;7.800;2022-09-16T04:31:06;8.23;;;3.63;;
6642;SDS011;3357;48.050;7.800;2022-09-16T04:33:34;3.30;;;3.10;;
6642;SDS011;3357;48.050;7.800;2022-09-16T04:36:00;4.87;;;3.23;;
6642;SDS011;3357;48.050;7.800;2022-09-16T04:38:27;4.73;;;3.20;;
6642;SDS011;3357;48.050;7.800;2022-09-16T04:40:52;3.63;;;3.33;;
6642;SDS011;3357;48.050;7.800;2022-09-16T04:43:23;5.10;;;3.73;;
6642;SDS011;3357;48.050;7.800;2022-09-16T04:45:49;3.40;;;3.20;;
6642;SDS011;3357;48.050;7.800;2022-09-16T04:48:15;5.60;;;3.90;;
6642;SDS011;3357;48.050;7.800;2022-09-16T04:50:41;4.67;;;3.53;;
6642;SDS011;3357;48.050;7.800;2022-09-16T04:53:14;8.33;;;4.10;;
6642;SDS011;3357;48.050;7.800;2022-09-16T04:55:39;6.63;;;4.23;;
6642;SDS011;3357;48.050;7.800;2022-09-16T04:58:04;8.87;;;6.47;;
6642;SDS011;3357;48.050;7.800;2022-09-16T05:00:30;11.93;;;4.30;;
6642;SDS011;3357;48.050;7.800;2022-09-16T05:02:55;8.30;;;4.37;;
6642;SDS011;3357;48.050;7.800;2022-09-16T05:05:20;6.33;;;4.13;;
6642;SDS011;3357;48.050;7.800;2022-09-16T05:07:46;5.27;;;4.20;;
6642;SDS011;3357;48.050;7.800;2022-09-16T05:10:11;6.70;;;4.27;;
6642;SDS011;3357;48.050;7.800;2022-09-16T05:12:36;4.20;;;3.80;;
6642;SDS011;3357;48.050;7.800;2022-09-16T05:15:02;6.73;;;4.23;;
6642;SDS011;3357;48.050;7.800;2022-09-16T05:17:28;4.70;;;4.10;;
6642;SDS011;3357;48.050;7.800;2022-09-16T05:19:54;9.33;;;4.60;;
6642;SDS011;3357;48.050;7.800;2022-09-16T05:22:19;6.87;;;4.40;;
6642;SDS011;3357;48.050;7.800;2022-09-16T05:24:44;7.50;;;5.40;;
6642;SDS011;3357;48.050;7.800;2022-09-16T05:27:10;4.47;;;3.70;;
6642;SDS011;3357;48.050;7.800;2022-09-16T05:29:35;5.07;;;4.23;;
6642;SDS011;3357;48.050;7.800;2022-09-16T05:32:00;8.23;;;5.07;;
6642;SDS011;3357;48.050;7.800;2022-09-16T05:34:26;7.07;;;4.93;;
6642;SDS011;3357;48.050;7.800;2022-09-16T05:36:55;8.00;;;4.83;;
6642;SDS011;3357;48.050;7.800;2022-09-16T05:39:20;7.20;;;5.77;;
6642;SDS011;3357;48.050;7.800;2022-09-16T05:41:47;5.47;;;4.97;;
6642;SDS011;3357;48.050;7.800;2022-09-16T05:44:12;11.43;;;5.00;;
6642;SDS011;3357;48.050;7.800;2022-09-16T05:46:38;10.83;;;5.30;;
6642;SDS011;3357;48.050;7.800;2022-09-16T05:49:05;7.23;;;5.20;;
6642;SDS011;3357;48.050;7.800;2022-09-16T05:51:32;7.63;;;4.80;;
6642;SDS011;3357;48.050;7.800;2022-09-16T05:53:58;10.00;;;5.23;;
6642;SDS011;3357;48.050;7.800;2022-09-16T05:56:24;6.30;;;4.87;;
6642;SDS011;3357;48.050;7.800;2022-09-16T05:58:51;8.00;;;5.13;;
6642;SDS011;3357;48.050;7.800;2022-09-16T06:01:19;7.83;;;5.10;;
6642;SDS011;3357;48.050;7.800;2022-09-16T06:03:47;5.30;;;4.57;;
6642;SDS011;3357;48.050;7.800;2022-09-16T06:08:50;5.90;;;4.50;;
6642;SDS011;3357;48.050;7.800;2022-09-16T06:11:18;9.10;;;4.80;;
6642;SDS011;3357;48.050;7.800;2022-09-16T06:13:45;8.23;;;4.40;;
6642;SDS011;3357;48.050;7.800;2022-09-16T06:16:10;5.90;;;5.27;;
6642;SDS011;3357;48.050;7.800;2022-09-16T06:18:37;5.10;;;4.17;;
6642;SDS011;3357;48.050;7.800;2022-09-16T06:21:04;4.33;;;4.03;;
6642;SDS011;3357;48.050;7.800;2022-09-16T06:23:31;6.17;;;4.83;;
6642;SDS011;3357;48.050;7.800;2022-09-16T06:26:03;12.93;;;4.67;;
6642;SDS011;3357;48.050;7.800;2022-09-16T06:28:30;7.77;;;4.20;;
6642;SDS011;3357;48.050;7.800;2022-09-16T06:31:06;5.53;;;4.70;;
6642;SDS011;3357;48.050;7.800;2022-09-16T06:33:34;4.50;;;3.93;;
6642;SDS011;3357;48.050;7.800;2022-09-16T06:36:10;7.17;;;6.03;;
6642;SDS011;3357;48.050;7.800;2022-09-16T06:38:40;5.40;;;4.20;;
6642;SDS011;3357;48.050;7.800;2022-09-16T06:41:08;5.20;;;4.33;;
6642;SDS011;3357;48.050;7.800;2022-09-16T06:43:35;6.73;;;3.83;;
6642;SDS011;3357;48.050;7.800;2022-09-16T06:46:02;4.53;;;4.17;;
6642;SDS011;3357;48.050;7.800;2022-09-16T06:48:31;5.77;;;4.00;;
6642;SDS011;3357;48.050;7.800;2022-09-16T06:51:01;5.70;;;4.13;;
6642;SDS011;3357;48.050;7.800;2022-09-16T06:53:31;5.00;;;4.30;;
6642;SDS011;3357;48.050;7.800;2022-09-16T06:56:02;6.70;;;4.80;;
6642;SDS011;3357;48.050;7.800;2022-09-16T06:58:32;7.77;;;4.23;;
6642;SDS011;3357;48.050;7.800;2022-09-16T07:01:09;5.20;;;4.37;;
6642;SDS011;3357;48.050;7.800;2022-09-16T07:03:36;7.30;;;5.30;;
6642;SDS011;3357;48.050;7.800;2022-09-16T07:06:02;8.40;;;5.63;;
6642;SDS011;3357;48.050;7.800;2022-09-16T07:08:32;8.13;;;6.80;;
6642;SDS011;3357;48.050;7.800;2022-09-16T07:10:59;12.33;;;7.77;;
6642;SDS011;3357;48.050;7.800;2022-09-16T07:13:25;8.77;;;7.63;;
6642;SDS011;3357;48.050;7.800;2022-09-16T07:15:52;15.90;;;9.10;;
6642;SDS011;3357;48.050;7.800;2022-09-16T07:18:18;12.97;;;8.73;;
6642;SDS011;3357;48.050;7.800;2022-09-16T07:20:44;10.30;;;8.70;;
6642;SDS011;3357;48.050;7.800;2022-09-16T07:23:09;12.73;;;8.90;;
6642;SDS011;3357;48.050;7.800;2022-09-16T07:25:35;13.97;;;9.83;;
6642;SDS011;3357;48.050;7.800;2022-09-16T07:28:00;15.10;;;9.10;;
6642;SDS011;3357;48.050;7.800;2022-09-16T07:30:25;17.30;;;10.77;;
6642;SDS011;3357;48.050;7.800;2022-09-16T07:33:00;15.47;;;10.00;;
6642;SDS011;3357;48.050;7.800;2022-09-16T07:35:25;13.00;;;10.20;;
6642;SDS011;3357;48.050;7.800;2022-09-16T07:37:50;12.03;;;9.03;;
6642;SDS011;3357;48.050;7.800;2022-09-16T07:40:16;15.80;;;8.73;;
6642;SDS011;3357;48.050;7.800;2022-09-16T07:42:41;10.70;;;7.30;;
6642;SDS011;3357;48.050;7.800;2022-09-16T07:45:09;8.10;;;7.23;;
6642;SDS011;3357;48.050;7.800;2022-09-16T07:47:41;7.20;;;5.93;;
6642;SDS011;3357;48.050;7.800;2022-09-16T07:50:12;20.13;;;6.30;;
6642;SDS011;3357;48.050;7.800;2022-09-16T07:52:41;7.13;;;5.93;;
6642;SDS011;3357;48.050;7.800;2022-09-16T07:55:06;6.40;;;5.90;;
6642;SDS011;3357;48.050;7.800;2022-09-16T07:57:34;6.37;;;5.77;;
6642;SDS011;3357;48.050;7.800;2022-09-16T07:59:59;6.40;;;5.80;;
6642;SDS011;3357;48.050;7.800;2022-09-16T08:02:25;6.07;;;5.43;;
6642;SDS011;3357;48.050;7.800;2022-09-16T08:04:50;4.50;;;4.20;;
6642;SDS011;3357;48.050;7.800;2022-09-16T08:07:16;3.83;;;3.57;;
6642;SDS011;3357;48.050;7.800;2022-09-16T08:09:42;4.27;;;3.97;;
6642;SDS011;3357;48.050;7.800;2022-09-16T08:12:08;4.03;;;3.67;;
6642;SDS011;3357;48.050;7.800;2022-09-16T08:14:36;5.10;;;4.67;;
6642;SDS011;3357;48.050;7.800;2022-09-16T08:17:02;7.20;;;4.30;;
6642;SDS011;3357;48.050;7.800;2022-09-16T08:19:28;6.50;;;3.20;;
6642;SDS011;3357;48.050;7.800;2022-09-16T08:21:53;4.27;;;2.90;;
6642;SDS011;3357;48.050;7.800;2022-09-16T08:24:19;2.87;;;2.77;;
6642;SDS011;3357;48.050;7.800;2022-09-16T08:26:45;2.53;;;2.33;;
6642;SDS011;3357;48.050;7.800;2022-09-16T08:29:12;2.30;;;2.10;;
6642;SDS011;3357;48.050;7.800;2022-09-16T08:31:40;4.30;;;2.50;;
6642;SDS011;3357;48.050;7.800;2022-09-16T08:34:05;3.10;;;2.20;;
6642;SDS011;3357;48.050;7.800;2022-09-16T08:36:31;1.43;;;1.20;;
6642;SDS011;3357;48.050;7.800;2022-09-16T08:38:59;1.73;;;1.63;;
6642;SDS011;3357;48.050;7.800;2022-09-16T08:47:01;1.50;;;1.40;;
6642;SDS011;3357;48.050;7.800;2022-09-16T08:49:40;1.73;;;1.40;;
6642;SDS011;3357;48.050;7.800;2022-09-16T08:52:12;1.87;;;1.50;;
6642;SDS011;3357;48.050;7.800;2022-09-16T08:54:55;1.30;;;1.20;;
6642;SDS011;3357;48.050;7.800;2022-09-16T08:57:26;1.93;;;1.83;;
6642;SDS011;3357;48.050;7.800;2022-09-16T08:59:56;1.40;;;1.30;;
6642;SDS011;3357;48.050;7.800;2022-09-16T09:04:57;1.87;;;1.67;;
6642;SDS011;3357;48.050;7.800;2022-09-16T09:10:39;1.40;;;1.40;;
6642;SDS011;3357;48.050;7.800;2022-09-16T09:26:57;4.87;;;1.73;;
6642;SDS011;3357;48.050;7.800;2022-09-16T09:37:51;3.17;;;1.50;;
6642;SDS011;3357;48.050;7.800;2022-09-16T09:40:40;3.70;;;2.20;;
6642;SDS011;3357;48.050;7.800;2022-09-16T09:43:17;1.90;;;1.70;;
6642;SDS011;3357;48.050;7.800;2022-09-16T09:45:59;2.60;;;2.30;;
6642;SDS011;3357;48.050;7.800;2022-09-16T09:48:42;4.70;;;2.10;;
6642;SDS011;3357;48.050;7.800;2022-09-16T09:53:57;3.47;;;2.23;;
6642;SDS011;3357;48.050;7.800;2022-09-16T09:56:29;4.40;;;1.60;;
6642;SDS011;3357;48.050;7.800;2022-09-16T10:01:36;1.63;;;1.53;;
6642;SDS011;3357;48.050;7.800;2022-09-16T10:04:04;3.37;;;1.80;;
6642;SDS011;3357;48.050;7.800;2022-09-16T10:06:35;4.13;;;2.00;;
6642;SDS011;3357;48.050;7.800;2022-09-16T10:09:01;4.73;;;2.17;;
6642;SDS011;3357;48.050;7.800;2022-09-16T10:11:28;2.20;;;1.63;;
6642;SDS011;3357;48.050;7.800;2022-09-16T10:14:00;2.27;;;1.70;;
6642;SDS011;3357;48.050;7.800;2022-09-16T10:21:55;1.90;;;1.80;;
6642;SDS011;3357;48.050;7.800;2022-09-16T10:24:34;1.60;;;1.50;;
6642;SDS011;3357;48.050;7.800;2022-09-16T10:27:25;2.37;;;2.03;;
6642;SDS011;3357;48.050;7.800;2022-09-16T10:35:29;1.60;;;1.50;;
6642;SDS011;3357;48.050;7.800;2022-09-16T10:38:05;3.07;;;1.57;;
6642;SDS011;3357;48.050;7.800;2022-09-16T10:40:49;7.37;;;1.90;;
6642;SDS011;3357;48.050;7.800;2022-09-16T10:43:18;1.97;;;1.70;;
6642;SDS011;3357;48.050;7.800;2022-09-16T10:45:45;7.03;;;2.80;;
6642;SDS011;3357;48.050;7.800;2022-09-16T10:48:14;3.37;;;2.03;;
6642;SDS011;3357;48.050;7.800;2022-09-16T10:53:50;2.37;;;2.17;;
6642;SDS011;3357;48.050;7.800;2022-09-16T10:56:29;4.00;;;2.00;;
6642;SDS011;3357;48.050;7.800;2022-09-16T10:59:12;2.20;;;2.10;;
6642;SDS011;3357;48.050;7.800;2022-09-16T11:24:50;2.57;;;2.23;;
6642;SDS011;3357;48.050;7.800;2022-09-16T11:30:21;3.33;;;3.03;;
6642;SDS011;3357;48.050;7.800;2022-09-16T11:35:39;6.83;;;2.60;;
6642;SDS011;3357;48.050;7.800;2022-09-16T11:38:26;3.33;;;2.73;;
6642;SDS011;3357;48.050;7.800;2022-09-16T11:46:05;9.30;;;2.43;;
6642;SDS011;3357;48.050;7.800;2022-09-16T11:54:57;3.03;;;2.63;;
6642;SDS011;3357;48.050;7.800;2022-09-16T11:57:45;9.10;;;3.00;;
6642;SDS011;3357;48.050;7.800;2022-09-16T12:00:16;3.07;;;2.77;;
6642;SDS011;3357;48.050;7.800;2022-09-16T12:02:45;3.30;;;2.77;;
6642;SDS011;3357;48.050;7.800;2022-09-16T12:10:34;5.90;;;2.93;;
6642;SDS011;3357;48.050;7.800;2022-09-16T12:13:04;4.47;;;2.63;;
6642;SDS011;3357;48.050;7.800;2022-09-16T12:15:42;5.20;;;3.40;;
6642;SDS011;3357;48.050;7.800;2022-09-16T12:18:14;6.03;;;3.53;;
6642;SDS011;3357;48.050;7.800;2022-09-16T12:20:46;3.30;;;2.97;;
6642;SDS011;3357;48.050;7.800;2022-09-16T12:23:21;5.90;;;2.67;;
6642;SDS011;3357;48.050;7.800;2022-09-16T12:29:05;8.10;;;3.00;;
6642;SDS011;3357;48.050;7.800;2022-09-16T12:34:42;5.60;;;3.30;;
6642;SDS011;3357;48.050;7.800;2022-09-16T12:39:43;2.73;;;2.53;;
6642;SDS011;3357;48.050;7.800;2022-09-16T12:58:57;2.73;;;2.40;;
6642;SDS011;3357;48.050;7.800;2022-09-16T13:01:35;5.63;;;2.70;;
6642;SDS011;3357;48.050;7.800;2022-09-16T13:06:45;2.50;;;2.30;;
6642;SDS011;3357;48.050;7.800;2022-09-16T13:09:24;2.73;;;2.50;;
6642;SDS011;3357;48.050;7.800;2022-09-16T13:11:57;4.27;;;2.70;;
6642;SDS011;3357;48.050;7.800;2022-09-16T13:14:27;4.47;;;3.00;;
6642;SDS011;3357;48.050;7.800;2022-09-16T13:16:55;3.50;;;2.70;;
6642;SDS011;3357;48.050;7.800;2022-09-16T13:22:01;6.23;;;2.40;;
6642;SDS011;3357;48.050;7.800;2022-09-16T13:24:48;4.10;;;2.70;;
6642;SDS011;3357;48.050;7.800;2022-09-16T13:27:36;2.60;;;2.40;;
6642;SDS011;3357;48.050;7.800;2022-09-16T13:32:41;5.60;;;3.63;;
6642;SDS011;3357;48.050;7.800;2022-09-16T13:37:44;3.03;;;2.57;;
6642;SDS011;3357;48.050;7.800;2022-09-16T13:40:23;3.17;;;2.70;;
6642;SDS011;3357;48.050;7.800;2022-09-16T13:43:11;3.00;;;2.80;;
6642;SDS011;3357;48.050;7.800;2022-09-16T13:45:42;9.20;;;3.03;;
6642;SDS011;3357;48.050;7.800;2022-09-16T13:50:59;5.10;;;2.87;;
6642;SDS011;3357;48.050;7.800;2022-09-16T13:53:26;6.03;;;3.33;;
6642;SDS011;3357;48.050;7.800;2022-09-16T14:01:56;5.47;;;2.93;;
6642;SDS011;3357;48.050;7.800;2022-09-16T14:15:57;3.13;;;2.80;;
6642;SDS011;3357;48.050;7.800;2022-09-16T14:20:54;2.83;;;2.63;;
6642;SDS011;3357;48.050;7.800;2022-09-16T14:23:27;3.83;;;2.77;;
6642;SDS011;3357;48.050;7.800;2022-09-16T14:26:08;3.73;;;2.90;;
6642;SDS011;3357;48.050;7.800;2022-09-16T14:28:34;3.20;;;2.50;;
6642;SDS011;3357;48.050;7.800;2022-09-16T14:31:00;2.57;;;2.37;;
6642;SDS011;3357;48.050;7.800;2022-09-16T14:33:28;2.87;;;2.27;;
6642;SDS011;3357;48.050;7.800;2022-09-16T14:35:55;2.60;;;2.40;;
6642;SDS011;3357;48.050;7.800;2022-09-16T14:38:21;5.80;;;2.67;;
6642;SDS011;3357;48.050;7.800;2022-09-16T14:40:54;2.40;;;2.20;;
6642;SDS011;3357;48.050;7.800;2022-09-16T14:43:20;3.87;;;2.50;;
6642;SDS011;3357;48.050;7.800;2022-09-16T14:48:15;3.60;;;2.63;;
6642;SDS011;3357;48.050;7.800;2022-09-16T14:50:51;5.43;;;2.73;;
6642;SDS011;3357;48.050;7.800;2022-09-16T14:53:32;5.37;;;2.50;;
6642;SDS011;3357;48.050;7.800;2022-09-16T14:56:14;3.07;;;2.80;;
6642;SDS011;3357;48.050;7.800;2022-09-16T14:58:44;3.20;;;2.47;;
6642;SDS011;3357;48.050;7.800;2022-09-16T15:01:25;5.77;;;3.00;;
6642;SDS011;3357;48.050;7.800;2022-09-16T15:06:21;4.77;;;3.00;;
6642;SDS011;3357;48.050;7.800;2022-09-16T15:08:59;2.50;;;2.30;;
6642;SDS011;3357;48.050;7.800;2022-09-16T15:11:31;7.77;;;2.60;;
6642;SDS011;3357;48.050;7.800;2022-09-16T15:13:59;4.10;;;2.80;;
6642;SDS011;3357;48.050;7.800;2022-09-16T15:16:26;3.50;;;3.03;;
6642;SDS011;3357;48.050;7.800;2022-09-16T15:19:01;3.10;;;2.57;;
6642;SDS011;3357;48.050;7.800;2022-09-16T15:21:34;2.93;;;2.73;;
6642;SDS011;3357;48.050;7.800;2022-09-16T15:24:02;3.03;;;2.43;;
6642;SDS011;3357;48.050;7.800;2022-09-16T15:26:39;5.93;;;3.20;;
6642;SDS011;3357;48.050;7.800;2022-09-16T15:29:29;7.13;;;3.20;;
6642;SDS011;3357;48.050;7.800;2022-09-16T15:31:54;4.97;;;2.93;;
6642;SDS011;3357;48.050;7.800;2022-09-16T15:34:31;2.47;;;2.37;;
6642;SDS011;3357;48.050;7.800;2022-09-16T15:36:57;7.87;;;3.27;;
6642;SDS011;3357;48.050;7.800;2022-09-16T15:39:26;5.93;;;2.90;;
6642;SDS011;3357;48.050;7.800;2022-09-16T15:44:54;4.63;;;3.13;;
6642;SDS011;3357;48.050;7.800;2022-09-16T15:47:30;3.97;;;2.87;;
6642;SDS011;3357;48.050;7.800;2022-09-16T15:50:02;5.87;;;3.10;;
6642;SDS011;3357;48.050;7.800;2022-09-16T15:52:33;6.83;;;3.13;;
6642;SDS011;3357;48.050;7.800;2022-09-16T15:55:02;5.90;;;2.87;;
6642;SDS011;3357;48.050;7.800;2022-09-16T15:57:39;6.20;;;3.30;;
6642;SDS011;3357;48.050;7.800;2022-09-16T16:00:11;5.93;;;3.40;;
6642;SDS011;3357;48.050;7.800;2022-09-16T16:02:48;4.93;;;3.57;;
6642;SDS011;3357;48.050;7.800;2022-09-16T16:07:56;3.93;;;2.80;;
6642;SDS011;3357;48.050;7.800;2022-09-16T16:10:26;3.00;;;2.80;;
6642;SDS011;3357;48.050;7.800;2022-09-16T16:12:54;3.00;;;2.80;;
6642;SDS011;3357;48.050;7.800;2022-09-16T16:15:22;4.10;;;3.20;;
6642;SDS011;3357;48.050;7.800;2022-09-16T16:17:49;3.33;;;3.13;;
6642;SDS011;3357;48.050;7.800;2022-09-16T16:20:16;3.20;;;2.90;;
6642;SDS011;3357;48.050;7.800;2022-09-16T16:22:42;3.83;;;3.10;;
6642;SDS011;3357;48.050;7.800;2022-09-16T16:25:10;3.90;;;3.20;;
6642;SDS011;3357;48.050;7.800;2022-09-16T16:27:37;7.40;;;2.53;;
6642;SDS011;3357;48.050;7.800;2022-09-16T16:30:03;3.47;;;2.73;;
6642;SDS011;3357;48.050;7.800;2022-09-16T16:32:29;3.80;;;2.47;;
6642;SDS011;3357;48.050;7.800;2022-09-16T16:34:55;3.87;;;3.40;;
6642;SDS011;3357;48.050;7.800;2022-09-16T16:37:22;3.33;;;2.63;;
6642;SDS011;3357;48.050;7.800;2022-09-16T16:39:48;5.60;;;2.83;;
6642;SDS011;3357;48.050;7.800;2022-09-16T16:42:14;4.00;;;2.20;;
6642;SDS011;3357;48.050;7.800;2022-09-16T16:44:39;3.80;;;2.70;;
6642;SDS011;3357;48.050;7.800;2022-09-16T16:47:06;2.93;;;2.47;;
6642;SDS011;3357;48.050;7.800;2022-09-16T16:49:32;4.80;;;3.00;;
6642;SDS011;3357;48.050;7.800;2022-09-16T16:51:59;6.70;;;3.53;;
6642;SDS011;3357;48.050;7.800;2022-09-16T16:54:25;4.03;;;3.00;;
6642;SDS011;3357;48.050;7.800;2022-09-16T16:56:54;4.27;;;3.60;;
6642;SDS011;3357;48.050;7.800;2022-09-16T16:59:19;3.60;;;3.30;;
6642;SDS011;3357;48.050;7.800;2022-09-16T17:01:46;5.27;;;2.80;;
6642;SDS011;3357;48.050;7.800;2022-09-16T17:04:14;4.77;;;3.00;;
6642;SDS011;3357;48.050;7.800;2022-09-16T17:06:39;2.97;;;2.80;;
6642;SDS011;3357;48.050;7.800;2022-09-16T17:09:05;3.40;;;3.10;;
6642;SDS011;3357;48.050;7.800;2022-09-16T17:11:33;4.70;;;3.47;;
6642;SDS011;3357;48.050;7.800;2022-09-16T17:14:00;8.50;;;3.70;;
6642;SDS011;3357;48.050;7.800;2022-09-16T17:16:29;4.20;;;3.63;;
6642;SDS011;3357;48.050;7.800;2022-09-16T17:18:56;5.13;;;3.70;;
6642;SDS011;3357;48.050;7.800;2022-09-16T17:21:26;4.17;;;3.50;;
6642;SDS011;3357;48.050;7.800;2022-09-16T17:23:53;5.53;;;3.70;;
6642;SDS011;3357;48.050;7.800;2022-09-16T17:26:23;3.27;;;2.63;;
6642;SDS011;3357;48.050;7.800;2022-09-16T17:28:50;10.73;;;3.97;;
6642;SDS011;3357;48.050;7.800;2022-09-16T17:31:20;3.77;;;3.47;;
6642;SDS011;3357;48.050;7.800;2022-09-16T17:33:51;4.77;;;4.03;;
6642;SDS011;3357;48.050;7.800;2022-09-16T17:36:17;4.33;;;3.93;;
6642;SDS011;3357;48.050;7.800;2022-09-16T17:38:58;6.30;;;3.30;;
6642;SDS011;3357;48.050;7.800;2022-09-16T17:41:26;4.27;;;3.80;;
6642;SDS011;3357;48.050;7.800;2022-09-16T17:43:52;10.43;;;3.27;;
6642;SDS011;3357;48.050;7.800;2022-09-16T17:46:18;5.63;;;4.40;;
6642;SDS011;3357;48.050;7.800;2022-09-16T17:48:44;4.13;;;3.70;;
6642;SDS011;3357;48.050;7.800;2022-09-16T17:51:10;5.80;;;3.90;;
6642;SDS011;3357;48.050;7.800;2022-09-16T17:53:36;12.00;;;4.97;;
6642;SDS011;3357;48.050;7.800;2022-09-16T17:56:20;7.13;;;4.60;;
6642;SDS011;3357;48.050;7.800;2022-09-16T17:58:45;4.00;;;3.67;;
6642;SDS011;3357;48.050;7.800;2022-09-16T18:01:15;2.57;;;2.37;;
6642;SDS011;3357;48.050;7.800;2022-09-16T18:03:42;3.43;;;1.30;;
6642;SDS011;3357;48.050;7.800;2022-09-16T18:06:19;2.87;;;1.00;;
6642;SDS011;3357;48.050;7.800;2022-09-16T18:08:48;1.17;;;1.07;;
6642;SDS011;3357;48.050;7.800;2022-09-16T18:11:15;3.17;;;1.17;;
6642;SDS011;3357;48.050;7.800;2022-09-16T18:13:41;1.53;;;0.80;;
6642;SDS011;3357;48.050;7.800;2022-09-16T18:16:11;5.50;;;0.83;;
6642;SDS011;3357;48.050;7.800;2022-09-16T18:18:38;0.80;;;0.80;;
6642;SDS011;3357;48.050;7.800;2022-09-16T18:21:05;1.60;;;1.00;;
6642;SDS011;3357;48.050;7.800;2022-09-16T18:23:33;1.30;;;0.90;;
6642;SDS011;3357;48.050;7.800;2022-09-16T18:26:05;1.73;;;0.87;;
6642;SDS011;3357;48.050;7.800;2022-09-16T18:28:38;2.50;;;1.33;;
6642;SDS011;3357;48.050;7.800;2022-09-16T18:31:06;2.00;;;1.00;;
6642;SDS011;3357;48.050;7.800;2022-09-16T18:33:34;3.07;;;1.20;;
6642;SDS011;3357;48.050;7.800;2022-09-16T18:36:04;2.47;;;0.87;;
6642;SDS011;3357;48.050;7.800;2022-09-16T18:38:31;1.77;;;0.93;;
6642;SDS011;3357;48.050;7.800;2022-09-16T18:41:02;5.57;;;1.20;;
6642;SDS011;3357;48.050;7.800;2022-09-16T18:43:29;1.20;;;0.97;;
6642;SDS011;3357;48.050;7.800;2022-09-16T18:46:05;2.77;;;1.20;;
6642;SDS011;3357;48.050;7.800;2022-09-16T18:48:38;2.60;;;0.87;;
6642;SDS011;3357;48.050;7.800;2022-09-16T18:53:50;6.53;;;1.23;;
6642;SDS011;3357;48.050;7.800;2022-09-16T18:56:17;2.27;;;0.90;;
6642;SDS011;3357;48.050;7.800;2022-09-16T18:58:45;1.00;;;1.00;;
6642;SDS011;3357;48.050;7.800;2022-09-16T19:01:19;3.40;;;0.90;;
6642;SDS011;3357;48.050;7.800;2022-09-16T19:03:50;1.63;;;1.00;;
6642;SDS011;3357;48.050;7.800;2022-09-16T19:06:16;1.30;;;1.20;;
6642;SDS011;3357;48.050;7.800;2022-09-16T19:08:42;3.10;;;0.97;;
6642;SDS011;3357;48.050;7.800;2022-09-16T19:11:10;2.97;;;1.00;;